Time;durP1;ratioP1;P1;durP2;ratioP2;P2;SDS_P1;SDS_P2;PMS_P1;PMS_P2;Temp;Humidity;BMP_temperature;BMP_pressure;BME280_temperature;BME280_humidity;BME280_pressure;Samples;Min_cycle;Max_cycle;Signal;HPM_P1;HPM_P2
2023/06/02 00:01:02;;;;;;;;;17.67;15.33;;;;;15.03;55.50;101894.31;5077588;27;45310;-82
2023/06/02 00:03:33;;;;;;;;;11.33;10.33;;;;;15.06;55.51;101890.69;5077373;27;46275;-80
2023/06/02 00:05:59;;;;;;;;;14.00;11.33;;;;;15.09;55.11;101886.19;5077375;27;45348;-81
2023/06/02 00:08:30;;;;;;;;;14.33;12.33;;;;;15.14;54.84;101883.41;5076946;28;45355;-84
2023/06/02 00:10:56;;;;;;;;;13.00;11.00;;;;;15.13;55.37;101874.59;5077090;27;45180;-81
2023/06/02 00:13:21;;;;;;;;;15.33;12.00;;;;;15.12;54.93;101877.28;5077148;28;45384;-81
2023/06/02 00:15:47;;;;;;;;;11.67;11.33;;;;;15.13;55.34;101871.94;5077212;27;45320;-81
2023/06/02 00:18:13;;;;;;;;;11.67;10.67;;;;;15.19;55.29;101883.31;5077386;27;45356;-80
2023/06/02 00:20:39;;;;;;;;;11.00;11.00;;;;;15.17;55.19;101872.72;5077362;27;45391;-83
2023/06/02 00:23:08;;;;;;;;;15.33;10.00;;;;;15.19;55.03;101878.91;5076991;27;46429;-79
2023/06/02 00:25:38;;;;;;;;;13.67;11.67;;;;;15.16;55.59;101873.63;5076644;27;45407;-81
2023/06/02 00:28:04;;;;;;;;;14.00;11.67;;;;;15.01;55.10;101851.00;5077250;27;45336;-79
2023/06/02 00:30:30;;;;;;;;;10.33;10.00;;;;;15.10;55.56;101866.72;5077439;27;45183;-79
2023/06/02 00:32:56;;;;;;;;;10.33;9.67;;;;;15.16;54.83;101884.25;5076968;27;47231;-81
2023/06/02 00:35:21;;;;;;;;;14.67;10.67;;;;;15.17;55.08;101887.78;5076888;27;45373;-79
2023/06/02 00:37:46;;;;;;;;;17.33;12.67;;;;;15.15;55.25;101886.03;5077169;27;45383;-80
2023/06/02 00:40:13;;;;;;;;;10.67;10.67;;;;;15.11;54.92;101883.50;5076994;27;45319;-81
2023/06/02 00:42:39;;;;;;;;;11.00;11.00;;;;;14.96;55.37;101858.22;5076885;27;46127;-79
2023/06/02 00:45:05;;;;;;;;;13.00;11.67;;;;;14.97;55.51;101881.16;5076787;27;45211;-78
2023/06/02 00:47:30;;;;;;;;;15.00;13.00;;;;;14.97;55.57;101889.09;5078632;27;45321;-79
2023/06/02 00:49:57;;;;;;;;;14.33;13.00;;;;;14.91;55.52;101884.81;5080519;27;45379;-81
2023/06/02 00:52:23;;;;;;;;;12.67;12.67;;;;;15.00;55.49;101885.53;5079992;27;45320;-80
2023/06/02 00:54:48;;;;;;;;;13.33;11.00;;;;;14.98;55.28;101881.13;5080234;27;45290;-80
2023/06/02 00:57:14;;;;;;;;;13.00;12.33;;;;;14.97;55.40;101870.53;5080254;27;45752;-79
2023/06/02 00:59:39;;;;;;;;;12.00;12.00;;;;;14.93;55.85;101885.66;5080448;27;45413;-84
2023/06/02 01:02:05;;;;;;;;;14.67;9.67;;;;;14.90;55.06;101871.59;5080392;27;45407;-82
2023/06/02 01:04:31;;;;;;;;;11.33;8.33;;;;;14.94;55.37;101878.56;5079175;28;45315;-80
2023/06/02 01:07:00;;;;;;;;;13.33;8.33;;;;;14.91;55.38;101879.50;5079937;27;45423;-80
2023/06/02 01:09:27;;;;;;;;;14.33;12.33;;;;;14.87;55.39;101876.97;5080415;28;45529;-80
2023/06/02 01:11:53;;;;;;;;;13.33;11.00;;;;;14.88;55.16;101878.72;5079593;27;45658;-80
2023/06/02 01:14:18;;;;;;;;;11.67;9.67;;;;;14.85;55.74;101879.66;5080179;27;45585;-82
2023/06/02 01:16:44;;;;;;;;;11.00;10.67;;;;;14.84;55.21;101862.03;5079734;27;45439;-80
2023/06/02 01:19:15;;;;;;;;;10.00;10.00;;;;;14.88;55.45;101876.94;5079640;27;45504;-84
2023/06/02 01:21:47;;;;;;;;;10.67;10.67;;;;;14.75;55.49;101841.88;5079745;27;47298;-80
2023/06/02 01:24:14;;;;;;;;;10.67;10.67;;;;;14.91;55.67;101873.34;5079478;27;45456;-80
2023/06/02 01:26:40;;;;;;;;;12.67;12.67;;;;;14.96;55.73;101880.28;5079344;27;45954;-81
2023/06/02 01:29:07;;;;;;;;;14.00;13.33;;;;;14.98;55.78;101870.50;5079681;28;45269;-79
2023/06/02 01:31:46;;;;;;;;;11.00;9.33;;;;;15.06;55.25;101872.09;5079508;27;46115;-83
2023/06/02 01:34:36;;;;;;;;;12.33;11.67;;;;;15.00;55.38;101861.66;5079601;27;45451;-81
2023/06/02 01:37:03;;;;;;;;;15.00;11.33;;;;;14.95;55.37;101848.50;5079822;27;45344;-81
2023/06/02 01:39:30;;;;;;;;;12.00;9.67;;;;;14.96;54.78;101858.22;5079978;27;45349;-80
2023/06/02 01:41:59;;;;;;;;;12.00;12.00;;;;;14.83;55.41;101848.78;5079274;27;45697;-80
2023/06/02 01:44:26;;;;;;;;;10.67;9.67;;;;;14.69;54.69;101823.44;5079117;27;45381;-81
2023/06/02 01:46:52;;;;;;;;;9.33;7.67;;;;;14.79;54.77;101855.94;5079690;28;45372;-79
2023/06/02 01:49:17;;;;;;;;;10.33;10.00;;;;;14.77;54.59;101850.66;5079200;27;45241;-80
2023/06/02 01:51:44;;;;;;;;;8.00;7.67;;;;;14.77;54.34;101842.72;5079183;27;46285;-77
2023/06/02 01:54:10;;;;;;;;;13.67;12.00;;;;;14.69;54.61;101842.00;5079285;27;45451;-78
2023/06/02 01:56:35;;;;;;;;;14.00;12.67;;;;;14.73;54.37;101850.78;5079357;28;45350;-78
2023/06/02 01:59:01;;;;;;;;;11.00;11.00;;;;;14.69;54.54;101849.97;5078576;27;45416;-80
2023/06/02 02:01:30;;;;;;;;;12.00;12.00;;;;;14.69;54.14;101855.25;5078924;27;46483;-78
2023/06/02 02:03:56;;;;;;;;;14.00;12.00;;;;;14.58;54.43;101857.25;5078898;27;45254;-83
2023/06/02 02:06:26;;;;;;;;;14.33;11.00;;;;;14.57;54.67;101855.50;5079044;27;45435;-78
2023/06/02 02:08:51;;;;;;;;;13.33;11.67;;;;;14.53;54.70;101859.13;5079292;27;45442;-78
2023/06/02 02:11:17;;;;;;;;;14.33;12.67;;;;;14.50;55.06;101849.47;5078886;27;45975;-78
2023/06/02 02:13:42;;;;;;;;;15.33;15.33;;;;;14.52;54.61;101860.91;5079018;27;45323;-79
2023/06/02 02:16:08;;;;;;;;;14.00;14.00;;;;;14.25;54.78;101807.59;5079084;27;45305;-81
2023/06/02 02:18:33;;;;;;;;;16.00;14.00;;;;;14.45;54.09;101852.22;5079243;27;45304;-79
2023/06/02 02:20:58;;;;;;;;;19.67;16.67;;;;;14.45;54.33;101849.56;5078738;27;46386;-80
2023/06/02 02:23:24;;;;;;;;;14.33;14.00;;;;;14.36;54.62;101840.94;5078946;27;45298;-79
2023/06/02 02:25:49;;;;;;;;;13.33;12.00;;;;;14.34;54.59;101840.97;5079004;27;45218;-82
2023/06/02 02:28:15;;;;;;;;;17.67;16.00;;;;;14.27;55.21;101831.41;5079085;27;45193;-78
2023/06/02 02:30:40;;;;;;;;;17.33;16.67;;;;;14.38;55.20;101839.13;5078625;27;47429;-80
2023/06/02 02:33:05;;;;;;;;;18.00;17.00;;;;;14.38;54.97;101836.50;5078434;27;45280;-79
2023/06/02 02:35:31;;;;;;;;;18.00;16.00;;;;;14.49;54.68;101842.41;5078609;27;45282;-81
2023/06/02 02:37:56;;;;;;;;;13.67;12.00;;;;;14.50;54.67;101844.16;5078870;27;45209;-79
2023/06/02 02:40:21;;;;;;;;;20.33;16.33;;;;;14.53;54.68;101838.78;5078668;27;46266;-79
2023/06/02 02:42:47;;;;;;;;;13.00;13.00;;;;;14.57;54.72;101839.63;5078549;27;45369;-79
2023/06/02 02:45:12;;;;;;;;;17.00;17.00;;;;;14.51;54.48;101832.66;5078693;27;45316;-81
2023/06/02 02:47:37;;;;;;;;;21.33;18.33;;;;;14.56;54.65;101837.84;5078831;27;45361;-82
2023/06/02 02:50:05;;;;;;;;;18.67;17.33;;;;;14.58;54.84;101850.19;5078221;27;46616;-79
2023/06/02 02:52:31;;;;;;;;;16.67;15.33;;;;;14.57;54.36;101853.72;5078175;27;45462;-78
2023/06/02 02:54:57;;;;;;;;;19.33;18.00;;;;;14.49;54.25;101836.25;5078419;27;45321;-78
2023/06/02 02:57:22;;;;;;;;;18.00;17.00;;;;;14.58;54.01;101847.53;5078616;27;45353;-80
2023/06/02 02:59:48;;;;;;;;;20.00;16.00;;;;;14.60;54.21;101855.44;5078416;27;46507;-78
2023/06/02 03:02:13;;;;;;;;;18.00;17.00;;;;;14.62;53.87;101851.00;5078146;27;45433;-82
2023/06/02 03:04:40;;;;;;;;;14.00;13.33;;;;;14.58;53.84;101847.53;5078260;27;45360;-78
2023/06/02 03:07:06;;;;;;;;;14.33;14.33;;;;;14.41;53.54;101826.69;5078174;27;45512;-82
2023/06/02 03:09:31;;;;;;;;;17.00;15.33;;;;;14.58;53.33;101847.53;5077583;27;47311;-82
2023/06/02 03:11:57;;;;;;;;;17.67;14.33;;;;;14.55;53.35;101855.53;5077921;27;45315;-79
2023/06/02 03:14:24;;;;;;;;;13.67;13.67;;;;;14.55;53.61;101852.91;5078307;27;45213;-79
2023/06/02 03:16:50;;;;;;;;;13.67;13.67;;;;;14.54;53.43;101861.75;5078086;27;45273;-78
2023/06/02 03:19:16;;;;;;;;;13.67;13.67;;;;;14.51;53.32;101864.47;5078017;27;45318;-79
2023/06/02 03:21:41;;;;;;;;;15.33;15.00;;;;;14.40;53.15;101858.50;5076888;27;45331;-77
2023/06/02 03:24:16;;;;;;;;;18.33;16.00;;;;;14.31;53.13;101851.63;5077904;27;45431;-75
2023/06/02 03:26:42;;;;;;;;;14.67;14.67;;;;;14.36;53.37;101868.31;5078137;27;45324;-77
2023/06/02 03:29:08;;;;;;;;;18.67;14.67;;;;;14.33;53.35;101865.69;5077663;27;46460;-79
2023/06/02 03:31:34;;;;;;;;;16.00;14.00;;;;;14.28;53.41;101863.16;5077714;27;45272;-79
2023/06/02 03:34:00;;;;;;;;;19.00;16.00;;;;;14.23;53.26;101870.34;5077874;27;45504;-76
2023/06/02 03:36:26;;;;;;;;;16.67;15.33;;;;;14.13;53.17;101857.28;5077992;27;45320;-80
2023/06/02 03:38:51;;;;;;;;;13.67;13.33;;;;;14.22;53.39;101876.53;5077543;27;46287;-78
2023/06/02 03:41:16;;;;;;;;;15.33;15.00;;;;;14.15;53.25;101871.41;5077704;27;45347;-76
2023/06/02 03:43:42;;;;;;;;;17.00;15.67;;;;;14.09;53.40;101877.69;5077946;27;45283;-77
2023/06/02 03:46:07;;;;;;;;;17.00;16.67;;;;;14.06;53.40;101862.72;5077598;27;45457;-79
2023/06/02 03:48:33;;;;;;;;;18.00;16.33;;;;;14.00;53.97;101867.25;5077435;27;45494;-77
2023/06/02 03:50:58;;;;;;;;;17.33;14.00;;;;;13.95;53.54;101869.97;5077368;27;45336;-79
2023/06/02 03:53:23;;;;;;;;;15.33;14.33;;;;;13.79;53.74;101858.81;5077750;27;45230;-80
2023/06/02 03:55:49;;;;;;;;;18.33;17.00;;;;;13.89;53.80;101880.69;5077628;27;45393;-79
2023/06/02 03:58:14;;;;;;;;;17.67;15.00;;;;;13.84;53.61;101871.94;5076382;27;45757;-78
2023/06/02 04:00:41;;;;;;;;;18.33;15.33;;;;;13.88;53.70;101871.88;5077738;27;45422;-78
2023/06/02 04:03:09;;;;;;;;;15.33;12.33;;;;;13.88;53.58;101882.47;5077446;28;45355;-80
2023/06/02 04:05:34;;;;;;;;;14.33;12.67;;;;;13.82;53.00;101885.22;5077163;27;45563;-81
2023/06/02 04:08:00;;;;;;;;;11.00;10.00;;;;;13.81;53.12;101878.19;5077248;28;45446;-80
2023/06/02 04:10:25;;;;;;;;;10.00;9.00;;;;;13.75;53.20;101860.66;5077029;27;45474;-79
2023/06/02 04:12:50;;;;;;;;;10.67;9.00;;;;;13.76;53.03;101864.16;5077461;28;45280;-77
2023/06/02 04:15:16;;;;;;;;;16.33;11.00;;;;;13.77;53.08;101865.91;5077570;27;45356;-78
2023/06/02 04:17:41;;;;;;;;;11.67;10.67;;;;;13.79;52.80;101866.75;5076465;27;46520;-77
2023/06/02 04:20:07;;;;;;;;;12.00;12.00;;;;;13.83;52.90;101862.28;5077457;27;45249;-77
2023/06/02 04:22:34;;;;;;;;;10.33;10.33;;;;;13.91;52.94;101878.88;5077936;28;45411;-79
2023/06/02 04:25:00;;;;;;;;;10.67;10.33;;;;;13.90;52.70;101864.78;5080823;27;45433;-76
2023/06/02 04:27:25;;;;;;;;;33.33;21.00;;;;;13.96;53.62;101868.22;5079912;27;46474;-79
2023/06/02 04:29:50;;;;;;;;;11.67;10.33;;;;;13.92;52.68;101864.75;5080706;27;45489;-80
2023/06/02 04:32:16;;;;;;;;;14.33;12.33;;;;;13.89;52.92;101859.50;5080942;27;45441;-77
2023/06/02 04:34:41;;;;;;;;;19.67;13.00;;;;;13.95;52.86;101874.41;5081027;27;45276;-77
2023/06/02 04:37:07;;;;;;;;;12.00;10.00;;;;;13.97;53.06;101876.13;5080590;27;45378;-77
2023/06/02 04:39:35;;;;;;;;;15.00;13.00;;;;;13.93;53.30;101870.00;5080426;28;45420;-76
2023/06/02 04:42:00;;;;;;;;;11.00;11.00;;;;;13.97;52.90;101878.78;5079873;27;45518;-78
2023/06/02 04:44:26;;;;;;;;;17.67;15.67;;;;;13.90;53.38;101872.72;5080814;27;45287;-77
2023/06/02 04:46:51;;;;;;;;;20.67;15.00;;;;;13.84;53.06;101867.56;5080798;27;45510;-74
2023/06/02 04:49:16;;;;;;;;;19.33;15.33;;;;;13.97;52.62;101888.50;5080327;27;45407;-76
2023/06/02 04:51:42;;;;;;;;;16.67;12.67;;;;;13.86;53.23;101881.63;5080569;27;45317;-74
2023/06/02 04:54:07;;;;;;;;;17.67;15.67;;;;;13.88;53.15;101890.44;5080669;27;45328;-75
2023/06/02 04:56:34;;;;;;;;;18.00;15.00;;;;;13.92;53.54;101881.50;5079974;27;46423;-74
2023/06/02 04:58:59;;;;;;;;;13.67;13.67;;;;;14.00;52.98;101893.72;5080131;27;45360;-77
2023/06/02 05:01:25;;;;;;;;;15.67;13.67;;;;;13.97;52.61;101892.03;5080259;27;45300;-76
2023/06/02 05:03:51;;;;;;;;;15.00;13.00;;;;;13.93;52.68;101882.38;5079778;27;45478;-77
2023/06/02 05:06:16;;;;;;;;;17.67;15.00;;;;;13.86;52.91;101870.16;5079578;27;45462;-76
2023/06/02 05:08:41;;;;;;;;;16.33;15.00;;;;;13.97;53.26;101880.53;5079559;28;45375;-77
2023/06/02 05:11:07;;;;;;;;;15.00;15.00;;;;;13.78;52.99;101840.31;5079640;27;45385;-75
2023/06/02 05:13:32;;;;;;;;;17.33;16.00;;;;;13.97;52.93;101878.78;5079827;27;45600;-75
2023/06/02 05:15:58;;;;;;;;;18.00;13.00;;;;;14.00;52.51;101889.31;5080114;27;46578;-79
2023/06/02 05:18:23;;;;;;;;;16.33;15.00;;;;;13.96;52.95;101879.69;5080027;27;45550;-76
2023/06/02 05:20:50;;;;;;;;;19.33;15.67;;;;;14.04;52.61;101879.53;5079239;27;45557;-79
2023/06/02 05:23:16;;;;;;;;;16.00;13.33;;;;;13.89;52.84;101851.56;5079722;27;45415;-78
2023/06/02 05:25:41;;;;;;;;;18.00;14.67;;;;;14.06;53.52;101880.38;5079459;27;46110;-78
2023/06/02 05:28:07;;;;;;;;;16.67;13.67;;;;;14.09;52.75;101883.84;5079606;27;45213;-79
2023/06/02 05:30:32;;;;;;;;;16.33;15.00;;;;;14.12;52.58;101871.47;5079342;27;45245;-81
2023/06/02 05:32:57;;;;;;;;;17.67;16.33;;;;;14.20;52.37;101891.59;5079602;27;45373;-78
2023/06/02 05:35:23;;;;;;;;;16.00;15.00;;;;;14.17;52.03;101875.72;5079596;27;46436;-77
2023/06/02 05:37:48;;;;;;;;;19.00;15.67;;;;;14.17;52.29;101880.16;5078116;27;45463;-77
2023/06/02 05:40:14;;;;;;;;;14.00;12.67;;;;;14.24;52.05;101889.75;5078239;27;45487;-76
2023/06/02 05:42:39;;;;;;;;;17.00;15.00;;;;;14.24;52.23;101890.59;5079746;27;45509;-85
2023/06/02 05:45:06;;;;;;;;;19.00;16.00;;;;;13.98;52.03;101843.44;5079537;27;46308;-78
2023/06/02 05:47:34;;;;;;;;;15.67;14.33;;;;;14.23;52.03;101882.69;5078902;27;45306;-79
2023/06/02 05:50:00;;;;;;;;;18.67;12.33;;;;;14.27;52.30;101885.28;5078670;27;45463;-81
2023/06/02 05:52:25;;;;;;;;;14.00;12.00;;;;;14.27;51.78;101903.81;5079113;27;45290;-78
2023/06/02 05:54:51;;;;;;;;;14.33;13.00;;;;;14.20;51.86;101881.00;5079218;27;46145;-79
2023/06/02 05:57:19;;;;;;;;;11.00;8.67;;;;;14.34;51.99;101886.00;5078356;27;45370;-77
2023/06/02 05:59:45;;;;;;;;;15.00;13.67;;;;;14.41;51.85;101900.00;5079325;27;45399;-77
2023/06/02 06:02:11;;;;;;;;;13.33;12.00;;;;;14.35;51.54;101881.56;5078930;27;45494;-78
2023/06/02 06:04:36;;;;;;;;;12.67;11.33;;;;;14.40;51.59;101890.31;5078587;27;45441;-77
2023/06/02 06:07:02;;;;;;;;;9.67;8.67;;;;;14.38;51.71;101877.09;5077815;27;45497;-77
2023/06/02 06:09:27;;;;;;;;;15.33;14.33;;;;;14.40;50.94;101874.41;5078324;27;45471;-79
2023/06/02 06:11:53;;;;;;;;;13.00;10.33;;;;;14.35;51.69;101884.22;5078894;27;45567;-76
2023/06/02 06:14:18;;;;;;;;;11.33;11.00;;;;;14.31;51.58;101877.25;5077399;28;46578;-77
2023/06/02 06:16:44;;;;;;;;;10.67;10.67;;;;;14.40;51.76;101887.66;5079126;27;45448;-79
2023/06/02 06:19:10;;;;;;;;;14.00;9.00;;;;;14.44;51.63;101884.03;5079127;27;45237;-80
2023/06/02 06:21:36;;;;;;;;;12.67;12.00;;;;;14.39;51.59;101872.66;5078620;27;45389;-78
2023/06/02 06:24:03;;;;;;;;;13.33;9.67;;;;;14.51;51.64;101887.44;5078685;27;45334;-85
2023/06/02 06:26:28;;;;;;;;;14.67;13.33;;;;;14.36;51.76;101856.81;5076920;28;45499;-81
2023/06/02 06:28:53;;;;;;;;;11.00;9.33;;;;;14.56;51.48;101878.47;5079119;27;45280;-79
2023/06/02 06:31:19;;;;;;;;;10.00;9.67;;;;;14.58;51.17;101868.72;5078752;27;45298;-80
2023/06/02 06:33:44;;;;;;;;;14.33;13.00;;;;;14.73;51.62;101887.91;5078507;27;47092;-78
2023/06/02 06:36:10;;;;;;;;;18.33;13.33;;;;;14.66;51.27;101873.03;5078675;27;45387;-78
2023/06/02 06:38:36;;;;;;;;;15.00;13.00;;;;;14.65;51.53;101882.75;5078569;28;45262;-79
2023/06/02 06:41:01;;;;;;;;;15.67;12.67;;;;;14.52;51.35;101874.16;5079167;27;45382;-79
2023/06/02 06:43:26;;;;;;;;;20.33;15.33;;;;;14.67;51.62;101895.97;5078512;27;46522;-78
2023/06/02 06:45:52;;;;;;;;;10.00;10.00;;;;;14.61;51.67;101897.84;5078165;27;45410;-79
2023/06/02 06:48:17;;;;;;;;;11.67;11.00;;;;;14.65;51.41;101896.00;5078230;27;45332;-78
2023/06/02 06:50:42;;;;;;;;;13.67;10.00;;;;;14.69;51.67;101892.38;5078265;27;45324;-80
2023/06/02 06:53:08;;;;;;;;;17.00;11.00;;;;;14.76;51.38;101895.78;5077594;27;46444;-78
2023/06/02 06:55:34;;;;;;;;;11.67;10.33;;;;;14.78;51.60;101896.59;5078256;27;45482;-80
2023/06/02 06:58:00;;;;;;;;;12.67;12.67;;;;;14.83;51.46;101893.84;5078544;27;45356;-82
2023/06/02 07:00:26;;;;;;;;;14.00;11.00;;;;;14.84;51.75;101888.53;5078611;27;45300;-80
2023/06/02 07:02:52;;;;;;;;;14.00;14.00;;;;;14.87;51.34;101887.56;5078014;27;46853;-79
2023/06/02 07:05:18;;;;;;;;;53.00;44.00;;;;;15.02;51.25;101903.16;5078383;27;45362;-78
2023/06/02 07:07:44;;;;;;;;;17.00;13.00;;;;;14.98;51.32;101897.03;5077642;27;45658;-81
2023/06/02 07:10:10;;;;;;;;;16.00;13.33;;;;;14.95;51.13;101878.53;5078633;27;45394;-78
2023/06/02 07:12:36;;;;;;;;;14.67;12.00;;;;;15.05;50.54;101905.72;5077759;27;46114;-77
2023/06/02 07:15:02;;;;;;;;;15.00;13.67;;;;;15.09;50.86;101903.91;5078039;27;45249;-78
2023/06/02 07:17:28;;;;;;;;;19.00;14.00;;;;;15.15;50.98;101898.44;5077406;27;45328;-78
2023/06/02 07:19:53;;;;;;;;;13.33;11.33;;;;;15.18;50.37;101898.38;5077531;28;45281;-77
2023/06/02 07:22:19;;;;;;;;;14.00;11.67;;;;;15.18;50.19;101893.06;5077700;27;45467;-77
2023/06/02 07:24:44;;;;;;;;;14.00;10.33;;;;;15.18;50.34;101892.19;5077812;27;45305;-77
2023/06/02 07:27:11;;;;;;;;;17.33;12.33;;;;;15.17;50.00;101885.13;5077236;27;45419;-78
2023/06/02 07:29:36;;;;;;;;;15.33;11.67;;;;;15.19;49.68;101897.47;5077780;27;45261;-76
2023/06/02 07:32:02;;;;;;;;;14.33;14.00;;;;;15.12;50.35;101885.25;5077265;27;46421;-77
2023/06/02 07:34:27;;;;;;;;;14.67;12.67;;;;;15.30;50.23;101897.19;5077795;27;45780;-77
2023/06/02 07:36:52;;;;;;;;;12.33;12.33;;;;;15.40;49.60;101903.16;5077887;27;45420;-78
2023/06/02 07:39:18;;;;;;;;;11.67;10.67;;;;;15.43;49.80;101900.44;5076999;27;45439;-77
2023/06/02 07:41:43;;;;;;;;;15.00;10.67;;;;;15.40;49.39;101887.25;5077472;27;46584;-77
2023/06/02 07:44:08;;;;;;;;;11.33;10.33;;;;;15.46;49.92;101898.56;5077754;27;45183;-76
2023/06/02 07:46:34;;;;;;;;;14.33;10.33;;;;;15.51;49.66;101898.47;5077946;27;45325;-77
2023/06/02 07:49:01;;;;;;;;;11.00;8.33;;;;;15.49;49.28;101900.28;5077731;27;45491;-76
2023/06/02 07:51:26;;;;;;;;;12.00;12.00;;;;;15.56;49.48;101901.88;5076736;28;45482;-78
2023/06/02 07:53:51;;;;;;;;;18.00;14.00;;;;;15.61;49.15;101892.00;5077518;27;45387;-78
2023/06/02 07:56:17;;;;;;;;;18.33;12.33;;;;;15.62;49.20;101898.19;5077676;27;45315;-78
2023/06/02 07:58:45;;;;;;;;;64.67;48.00;;;;;15.66;49.00;101895.41;5081395;27;45451;-77
2023/06/02 08:01:10;;;;;;;;;11.67;11.67;;;;;15.73;49.07;101904.09;5080082;27;47264;-77
2023/06/02 08:03:35;;;;;;;;;15.33;12.67;;;;;15.74;48.64;101912.94;5080457;27;45538;-78
2023/06/02 08:06:01;;;;;;;;;15.33;13.67;;;;;15.70;49.36;101917.47;5081501;27;45277;-78
2023/06/02 08:08:26;;;;;;;;;12.67;10.67;;;;;15.69;48.83;101907.75;5079972;27;45416;-78
2023/06/02 08:10:51;;;;;;;;;13.67;10.67;;;;;15.66;48.62;101910.47;5080629;27;45606;-76
2023/06/02 08:13:17;;;;;;;;;13.33;10.67;;;;;15.70;49.13;101906.84;5080368;27;45223;-76
2023/06/02 08:15:42;;;;;;;;;17.67;10.33;;;;;15.69;48.78;101896.25;5080452;27;45205;-79
2023/06/02 08:18:18;;;;;;;;;11.00;11.00;;;;;15.74;48.47;101897.88;5080142;27;45576;-80
2023/06/02 08:20:44;;;;;;;;;11.67;11.67;;;;;15.88;48.25;101905.50;5079429;28;46696;-79
2023/06/02 08:23:10;;;;;;;;;16.67;9.67;;;;;15.87;48.25;101902.91;5080250;27;45493;-79
2023/06/02 08:25:38;;;;;;;;;15.33;12.67;;;;;15.93;48.18;101906.28;5080788;27;45336;-77
2023/06/02 08:28:07;;;;;;;;;14.33;11.33;;;;;16.13;47.82;101911.03;5080940;27;45286;-78
2023/06/02 08:30:35;;;;;;;;;13.33;12.00;;;;;16.25;47.94;101908.94;5079948;27;46475;-78
2023/06/02 08:33:08;;;;;;;;;17.00;11.67;;;;;16.26;47.77;101908.91;5079660;27;45617;-80
2023/06/02 08:35:36;;;;;;;;;10.67;10.67;;;;;16.33;47.62;101922.91;5080763;27;45151;-78
2023/06/02 08:38:02;;;;;;;;;10.67;8.67;;;;;16.27;47.07;101913.31;5079904;27;45646;-79
2023/06/02 08:40:35;;;;;;;;;9.67;8.00;;;;;16.31;47.10;101903.50;5080366;27;47465;-76
2023/06/02 08:43:03;;;;;;;;;12.00;11.33;;;;;16.53;47.01;101919.69;5080571;27;45421;-77
2023/06/02 08:45:28;;;;;;;;;13.33;10.00;;;;;16.64;46.26;101914.94;5080435;27;45365;-79
2023/06/02 08:47:54;;;;;;;;;15.00;11.00;;;;;16.63;46.81;101893.72;5080346;27;45348;-77
2023/06/02 08:50:24;;;;;;;;;11.00;10.00;;;;;16.92;46.41;101922.13;5079814;27;45429;-78
2023/06/02 08:52:51;;;;;;;;;11.00;10.00;;;;;16.79;46.20;101881.69;5079328;27;45469;-78
2023/06/02 08:55:16;;;;;;;;;12.00;9.00;;;;;17.13;45.81;101912.56;5080570;27;45274;-77
2023/06/02 08:57:42;;;;;;;;;9.67;9.33;;;;;17.21;45.74;101896.38;5080071;27;45257;-79
2023/06/02 09:00:08;;;;;;;;;11.00;10.00;;;;;17.34;45.11;101903.03;5080354;27;46570;-80
2023/06/02 09:02:34;;;;;;;;;10.00;9.33;;;;;17.28;45.23;101897.03;5079744;27;45453;-77
2023/06/02 09:04:59;;;;;;;;;13.00;11.67;;;;;17.38;45.01;101896.72;5080565;27;45325;-77
2023/06/02 09:07:25;;;;;;;;;8.67;8.67;;;;;17.62;45.19;101895.94;5079972;27;45391;-77
2023/06/02 09:09:52;;;;;;;;;15.67;10.00;;;;;17.86;45.03;101881.78;5079712;27;46141;-79
2023/06/02 09:12:19;;;;;;;;;12.67;10.00;;;;;18.13;43.73;101886.19;5079784;27;45381;-78
2023/06/02 09:14:47;;;;;;;;;14.00;11.67;;;;;18.34;43.85;101895.19;5079994;27;45347;-79
2023/06/02 09:17:25;;;;;;;;;11.00;9.00;;;;;18.61;43.67;101901.28;5080688;27;45310;-78
2023/06/02 09:19:52;;;;;;;;;14.67;11.67;;;;;18.95;43.31;101897.34;5079894;27;47193;-77
2023/06/02 09:22:17;;;;;;;;;13.67;11.00;;;;;19.25;42.68;101879.22;5079907;27;45493;-80
2023/06/02 09:24:43;;;;;;;;;13.33;11.67;;;;;19.45;41.68;101890.91;5080025;27;45397;-78
2023/06/02 09:27:12;;;;;;;;;11.00;10.33;;;;;19.65;41.50;101898.06;5080084;27;45351;-77
2023/06/02 09:29:38;;;;;;;;;10.67;9.33;;;;;19.69;41.01;101885.44;5079722;27;46210;-78
2023/06/02 09:32:10;;;;;;;;;11.00;8.00;;;;;19.80;40.90;101881.41;5079965;27;45307;-79
2023/06/02 09:34:35;;;;;;;;;13.67;11.67;;;;;20.22;39.54;101900.97;5079953;27;45493;-77
2023/06/02 09:37:09;;;;;;;;;8.33;6.33;;;;;20.16;39.88;101883.38;5079982;27;45491;-78
2023/06/02 09:39:43;;;;;;;;;12.33;10.33;;;;;20.74;39.23;101888.81;5079466;27;45401;-78
2023/06/02 09:42:12;;;;;;;;;12.67;10.00;;;;;21.31;37.83;101892.28;5079555;27;45419;-78
2023/06/02 09:44:38;;;;;;;;;12.33;8.33;;;;;22.26;37.72;101870.44;5079825;27;45333;-78
2023/06/02 09:47:23;;;;;;;;;12.67;9.67;;;;;23.25;36.42;101890.94;5079875;27;45300;-76
2023/06/02 09:49:48;;;;;;;;;10.00;8.33;;;;;23.91;34.30;101872.75;5079412;27;46549;-77
2023/06/02 09:52:15;;;;;;;;;11.33;10.00;;;;;25.08;33.23;101876.13;5079474;27;45253;-76
2023/06/02 09:54:45;;;;;;;;;10.00;10.00;;;;;26.18;32.83;101874.94;5079492;27;45435;-78
2023/06/02 09:57:15;;;;;;;;;14.00;13.33;;;;;26.60;30.83;101861.16;5079684;27;45333;-76
2023/06/02 09:59:41;;;;;;;;;10.33;8.00;;;;;27.35;31.00;101867.41;5079347;27;45258;-75
2023/06/02 10:02:10;;;;;;;;;11.33;9.33;;;;;28.17;29.87;101864.63;5079106;27;45405;-77
2023/06/02 10:04:36;;;;;;;;;10.00;10.00;;;;;29.63;27.63;101878.00;5079404;27;45277;-77
2023/06/02 10:07:13;;;;;;;;;11.00;8.00;;;;;30.96;28.26;101872.53;5079424;27;45191;-76
2023/06/02 10:10:00;;;;;;;;;10.00;10.00;;;;;32.33;29.30;101856.06;5078857;27;46723;-77
2023/06/02 10:13:00;;;;;;;;;10.67;8.00;;;;;33.54;26.28;101876.75;5078769;27;45331;-77
2023/06/02 10:15:40;;;;;;;;;10.33;8.33;;;;;34.62;23.94;101865.41;5079027;27;45419;-77
2023/06/02 10:18:34;;;;;;;;;7.33;7.33;;;;;35.46;23.30;101868.13;5079300;27;45377;-77
2023/06/02 10:21:21;;;;;;;;;15.33;10.00;;;;;36.13;24.44;101862.34;5078072;27;45444;-76
2023/06/02 10:23:58;;;;;;;;;12.67;9.00;;;;;36.24;23.05;101839.19;5078798;27;45563;-77
2023/06/02 10:27:01;;;;;;;;;8.00;8.00;;;;;36.64;21.58;101864.69;5079013;28;45245;-78
2023/06/02 10:29:29;;;;;;;;;10.67;9.67;;;;;37.02;21.88;101874.94;5078893;27;45292;-77
2023/06/02 10:31:55;;;;;;;;;12.00;7.67;;;;;37.35;20.07;101871.97;5078742;27;47305;-78
2023/06/02 10:34:38;;;;;;;;;19.33;16.33;;;;;37.25;21.08;101839.22;5078197;27;45363;-78
2023/06/02 10:37:03;;;;;;;;;9.33;9.33;;;;;37.41;20.70;101869.34;5078894;27;45198;-78
2023/06/02 10:39:37;;;;;;;;;10.00;8.67;;;;;37.23;19.78;101861.41;5078782;28;45448;-77
2023/06/02 10:42:12;;;;;;;;;9.00;8.67;;;;;37.42;19.70;101871.03;5077972;27;45654;-78
2023/06/02 10:44:38;;;;;;;;;12.67;11.33;;;;;37.66;19.30;101860.88;5078464;27;45394;-77
2023/06/02 10:47:18;;;;;;;;;9.33;9.00;;;;;37.88;19.81;101870.09;5078069;27;45227;-77
2023/06/02 10:49:50;;;;;;;;;10.00;9.00;;;;;37.85;19.26;101861.38;5078301;28;45317;-77
2023/06/02 10:52:16;;;;;;;;;10.00;10.00;;;;;37.85;18.16;101856.75;5061051;28;46216;-78
2023/06/02 10:54:41;;;;;;;;;12.67;12.00;;;;;37.28;18.69;101858.13;5078171;27;45418;-79
2023/06/02 10:57:09;;;;;;;;;11.67;8.67;;;;;36.49;18.75;101861.88;5078473;27;45296;-77
2023/06/02 10:59:36;;;;;;;;;10.00;10.00;;;;;35.46;19.28;101862.66;5074622;28;45473;-78
2023/06/02 11:02:02;;;;;;;;;11.33;9.33;;;;;34.12;19.57;101859.72;5077998;27;46365;-78
2023/06/02 11:04:29;;;;;;;;;12.33;8.33;;;;;33.17;20.61;101853.22;5078423;27;45234;-77
2023/06/02 11:07:21;;;;;;;;;13.00;10.67;;;;;32.09;21.66;101851.09;5078395;28;45427;-79
2023/06/02 11:09:55;;;;;;;;;10.00;10.00;;;;;30.90;22.24;101849.53;5078078;27;45502;-79
2023/06/02 11:12:40;;;;;;;;;11.67;10.67;;;;;29.62;23.14;101849.09;5077397;27;46479;-79